Time;durP1;ratioP1;P1;durP2;ratioP2;P2;SDS_P1;SDS_P2;PMS_P1;PMS_P2;Temp;Humidity;BMP_temperature;BMP_pressure;BME280_temperature;BME280_humidity;BME280_pressure;Samples;Min_cycle;Max_cycle;Signal;HPM_P1;HPM_P2
2023/12/11 00:01:32;;;;;;;;;;;;;;;2.85;79.31;99948.41;3166665;28;20044;-69
2023/12/11 00:03:03;;;;;;;44.35;17.38;;;;;;;2.86;79.51;99946.69;3159870;28;20393;-70
2023/12/11 00:04:34;;;;;;;43.95;16.63;;;;;;;2.89;79.66;99962.94;3164679;28;20051;-70
2023/12/11 00:06:06;;;;;;;48.80;17.65;;;;;;;2.90;79.64;99967.22;3167530;28;20652;-69
2023/12/11 00:07:39;;;;;;;52.13;20.02;;;;;;;2.88;79.59;99957.81;3167757;28;20055;-70
2023/12/11 00:09:10;;;;;;;56.25;19.65;;;;;;;2.89;79.73;99962.94;3166321;28;20044;-68
2023/12/11 00:10:42;;;;;;;53.47;20.23;;;;;;;2.89;79.73;99957.78;3166538;28;20575;-70
2023/12/11 00:12:13;;;;;;;50.17;19.20;;;;;;;2.92;79.83;99959.47;3170747;28;20108;-71
2023/12/11 00:13:44;;;;;;;56.38;20.73;;;;;;;2.92;79.84;99960.31;3163553;28;20550;-70
2023/12/11 00:15:15;;;;;;;51.08;19.70;;;;;;;2.93;79.90;99964.63;3158178;28;20059;-72
2023/12/11 00:16:47;;;;;;;52.72;18.83;;;;;;;2.89;79.77;99965.50;3166241;28;20043;-71
2023/12/11 00:18:18;;;;;;;53.00;20.15;;;;;;;2.94;79.86;99970.59;3157920;28;20047;-71
2023/12/11 00:19:50;;;;;;;57.35;20.02;;;;;;;2.17;79.77;99853.16;3158846;28;20567;-71
2023/12/11 00:21:21;;;;;;;48.15;18.85;;;;;;;2.94;79.90;99966.31;3170237;28;20048;-72
2023/12/11 00:22:54;;;;;;;53.50;20.70;;;;;;;2.95;79.74;99967.16;3158156;28;20062;-72
2023/12/11 00:24:24;;;;;;;49.90;19.83;;;;;;;2.92;79.90;99972.34;3169940;28;20085;-75
2023/12/11 00:25:56;;;;;;;50.67;19.90;;;;;;;2.92;79.90;99978.31;3157817;28;20127;-74
2023/12/11 00:27:27;;;;;;;58.65;21.48;;;;;;;2.92;79.97;99973.19;3168519;28;20413;-74
2023/12/11 00:28:59;;;;;;;58.55;20.90;;;;;;;2.93;80.01;99980.03;3160299;28;20096;-74
2023/12/11 00:30:30;;;;;;;56.33;21.40;;;;;;;2.94;80.09;99980.91;3158493;28;20060;-74
2023/12/11 00:32:02;;;;;;;61.50;22.48;;;;;;;2.95;80.09;99983.44;3159072;28;20508;-73
2023/12/11 00:33:34;;;;;;;54.65;20.23;;;;;;;2.89;80.23;99978.34;3169674;28;20050;-74
2023/12/11 00:35:06;;;;;;;49.42;20.92;;;;;;;2.93;80.15;99985.19;3159508;28;20081;-73
2023/12/11 00:36:37;;;;;;;61.15;21.80;;;;;;;2.82;80.16;99966.44;3157917;28;20485;-73
2023/12/11 00:38:11;;;;;;;50.83;20.05;;;;;;;2.97;80.16;99986.00;3158561;28;20036;-73
2023/12/11 00:39:41;;;;;;;52.13;20.92;;;;;;;2.97;80.15;99980.84;3157765;28;20132;-73
2023/12/11 00:41:13;;;;;;;54.50;20.75;;;;;;;2.95;80.25;99980.88;3157598;28;20048;-73
2023/12/11 00:42:44;;;;;;;57.58;22.25;;;;;;;2.95;80.24;99973.13;3157387;28;20044;-71
2023/12/11 00:44:16;;;;;;;53.47;21.23;;;;;;;2.94;80.21;99965.47;3161532;28;20535;-72
2023/12/11 00:45:48;;;;;;;55.10;20.45;;;;;;;2.92;80.25;99960.31;3163329;28;20048;-72
2023/12/11 00:47:19;;;;;;;57.60;22.00;;;;;;;2.94;80.35;99961.16;3157938;28;20078;-72
2023/12/11 00:48:51;;;;;;;59.10;22.08;;;;;;;2.94;80.38;99956.00;3170342;28;20059;-73
2023/12/11 00:50:22;;;;;;;54.15;20.70;;;;;;;2.94;80.33;99962.88;3157618;28;20574;-72
2023/12/11 00:51:53;;;;;;;56.35;22.80;;;;;;;2.94;80.44;99968.03;3166415;28;20058;-73
2023/12/11 00:53:26;;;;;;;55.40;21.75;;;;;;;2.91;80.41;99956.06;3161493;28;20048;-73
2023/12/11 00:54:57;;;;;;;52.08;19.42;;;;;;;2.74;80.52;99924.53;3160051;28;20200;-73
2023/12/11 00:56:28;;;;;;;56.53;21.17;;;;;;;2.40;80.20;99878.63;3157586;28;20509;-74
2023/12/11 00:58:00;;;;;;;58.15;21.98;;;;;;;2.91;80.39;99953.47;3159926;28;20061;-76
2023/12/11 00:59:31;;;;;;;56.55;21.95;;;;;;;2.90;80.54;99949.22;3161061;28;20055;-74
2023/12/11 01:01:03;;;;;;;57.25;22.55;;;;;;;2.91;80.44;99940.63;3164449;28;20613;-75
2023/12/11 01:02:34;;;;;;;55.00;20.77;;;;;;;2.91;80.46;99932.91;3168028;28;20043;-76
2023/12/11 01:04:06;;;;;;;57.25;22.45;;;;;;;2.88;80.45;99925.22;3160281;28;20512;-76
2023/12/11 01:05:37;;;;;;;52.42;19.23;;;;;;;2.88;80.39;99929.53;3167983;28;20079;-75
2023/12/11 01:07:09;;;;;;;57.65;21.88;;;;;;;2.90;80.40;99938.09;3167953;28;20051;-77
2023/12/11 01:08:41;;;;;;;52.45;20.38;;;;;;;2.90;80.36;99938.09;3163948;28;20039;-76
2023/12/11 01:10:13;;;;;;;59.80;21.17;;;;;;;2.90;80.27;99938.09;3157604;28;20074;-69
2023/12/11 01:11:44;;;;;;;53.33;20.33;;;;;;;2.89;80.30;99929.50;3157313;28;20143;-75
2023/12/11 01:13:15;;;;;;;50.45;20.00;;;;;;;2.84;80.36;99918.44;3158200;28;20087;-75
2023/12/11 01:14:46;;;;;;;50.20;21.42;;;;;;;2.87;80.39;99918.38;3156972;28;20116;-75
2023/12/11 01:16:18;;;;;;;50.53;19.88;;;;;;;2.84;80.27;99907.25;3166981;28;20538;-76
2023/12/11 01:17:49;;;;;;;57.95;21.27;;;;;;;2.87;80.20;99902.06;3160809;28;20040;-75
2023/12/11 01:19:21;;;;;;;49.95;19.35;;;;;;;2.86;80.16;99903.81;3157141;28;20098;-74
2023/12/11 01:20:52;;;;;;;50.15;19.05;;;;;;;2.55;80.24;99853.63;3157370;28;20047;-76
2023/12/11 01:22:24;;;;;;;54.20;22.05;;;;;;;2.84;80.22;99896.97;3163796;28;20185;-76
2023/12/11 01:23:56;;;;;;;52.35;20.05;;;;;;;2.82;80.29;99889.28;3169740;28;20095;-77
2023/12/11 01:25:28;;;;;;;53.85;19.92;;;;;;;2.81;80.20;99890.16;3164100;28;20482;-76
2023/12/11 01:26:59;;;;;;;51.45;20.27;;;;;;;2.81;80.27;99892.75;3167365;28;20092;-76
2023/12/11 01:28:31;;;;;;;51.53;19.13;;;;;;;2.79;80.23;99894.47;3169876;28;20126;-75
2023/12/11 01:30:02;;;;;;;55.78;21.20;;;;;;;2.77;80.30;99891.06;3159071;28;20063;-76
2023/12/11 01:31:34;;;;;;;61.17;22.70;;;;;;;2.77;80.31;99883.34;3156955;28;20095;-76
2023/12/11 01:33:05;;;;;;;53.03;20.13;;;;;;;2.73;80.22;99881.69;3165355;28;20443;-76
2023/12/11 01:34:37;;;;;;;51.67;19.95;;;;;;;2.72;80.17;99882.53;3161801;28;20104;-75
2023/12/11 01:36:08;;;;;;;50.72;21.08;;;;;;;2.71;80.29;99880.84;3163669;28;20359;-74
2023/12/11 01:37:40;;;;;;;54.55;20.35;;;;;;;2.71;80.32;99883.41;3156626;28;20063;-73
2023/12/11 01:39:12;;;;;;;60.65;22.02;;;;;;;2.69;80.31;99880.88;3156777;28;20426;-76
2023/12/11 01:40:44;;;;;;;53.85;21.65;;;;;;;2.69;80.34;99887.72;3164447;28;20161;-74
2023/12/11 01:42:15;;;;;;;59.08;22.05;;;;;;;2.66;80.29;99882.63;3159350;28;20052;-73
2023/12/11 01:43:56;;;;;;;52.65;20.63;;;;;;;1.94;80.19;99780.63;3156732;28;20050;-75
2023/12/11 01:45:27;;;;;;;58.08;23.50;;;;;;;2.62;80.54;99888.66;3159316;28;20132;-75
2023/12/11 01:46:59;;;;;;;64.03;22.52;;;;;;;2.60;80.47;99891.25;3157142;28;20188;-74
2023/12/11 01:48:31;;;;;;;59.90;21.85;;;;;;;2.22;80.50;99835.16;3157060;28;20040;-74
2023/12/11 01:50:03;;;;;;;66.63;25.30;;;;;;;2.59;80.70;99888.72;3157026;28;20131;-74
2023/12/11 01:51:35;;;;;;;109.75;34.33;;;;;;;2.58;80.56;99890.44;3163848;28;20165;-74
2023/12/11 01:53:09;;;;;;;77.57;27.42;;;;;;;2.58;80.48;99892.16;3163320;28;20060;-73
2023/12/11 01:54:41;;;;;;;58.05;22.08;;;;;;;2.57;80.61;99887.88;3157518;28;20048;-74
2023/12/11 01:56:14;;;;;;;54.23;19.83;;;;;;;2.54;80.63;99893.88;3162108;28;20445;-74
2023/12/11 01:57:45;;;;;;;75.70;28.13;;;;;;;2.51;80.62;99891.34;3164790;28;20044;-74
2023/12/11 01:59:18;;;;;;;68.97;23.23;;;;;;;2.47;80.66;99895.69;3157940;28;20310;-75
2023/12/11 02:00:49;;;;;;;62.13;23.70;;;;;;;2.45;80.69;99902.53;3169566;28;20080;-76
2023/12/11 02:02:21;;;;;;;58.25;23.27;;;;;;;2.42;80.77;99902.56;3168290;28;20189;-76
2023/12/11 02:03:52;;;;;;;61.33;22.80;;;;;;;2.42;80.92;99907.72;3168657;28;20527;-74
2023/12/11 02:05:24;;;;;;;53.40;21.98;;;;;;;2.43;80.84;99906.88;3171576;28;20055;-75
2023/12/11 02:06:54;;;;;;;57.45;22.08;;;;;;;2.42;80.97;99907.72;3169732;28;20069;-74
2023/12/11 02:08:26;;;;;;;58.95;22.42;;;;;;;2.40;80.86;99899.19;3162960;28;20523;-74
2023/12/11 02:09:59;;;;;;;64.95;22.38;;;;;;;2.27;80.91;99883.03;3171129;28;20055;-74
2023/12/11 02:11:30;;;;;;;65.60;23.05;;;;;;;2.39;81.11;99904.34;3170348;28;20047;-73
2023/12/11 02:13:01;;;;;;;61.28;21.77;;;;;;;2.36;81.10;99897.50;3160959;28;20059;-74
2023/12/11 02:14:33;;;;;;;66.20;23.63;;;;;;;2.34;81.18;99896.69;3158804;28;20517;-73
2023/12/11 02:16:06;;;;;;;58.67;21.52;;;;;;;2.34;81.13;99903.53;3162842;28;20064;-74
2023/12/11 02:17:37;;;;;;;63.80;22.67;;;;;;;2.27;81.27;99900.16;3163808;28;20047;-74
2023/12/11 02:19:09;;;;;;;56.53;22.52;;;;;;;2.30;81.15;99907.84;3163538;28;20048;-73
2023/12/11 02:20:41;;;;;;;61.08;21.48;;;;;;;2.30;81.33;99909.56;3157285;28;20048;-74
2023/12/11 02:22:14;;;;;;;58.35;20.65;;;;;;;2.29;81.24;99911.28;3166545;28;20065;-73
2023/12/11 02:23:49;;;;;;;64.95;23.33;;;;;;;2.27;81.30;99920.72;3169383;28;20501;-75
2023/12/11 02:25:23;;;;;;;57.85;21.95;;;;;;;2.25;81.44;99904.50;3169221;28;20054;-74
2023/12/11 02:26:55;;;;;;;55.20;21.90;;;;;;;2.25;81.52;99914.78;3161743;28;20374;-70
2023/12/11 02:28:27;;;;;;;60.13;22.38;;;;;;;2.20;81.51;99909.66;3151531;28;20059;-70
2023/12/11 02:29:58;;;;;;;63.03;22.20;;;;;;;2.21;81.54;99913.91;3152128;28;20128;-69
2023/12/11 02:31:30;;;;;;;57.30;22.40;;;;;;;2.22;81.67;99909.66;3162491;28;20143;-71
2023/12/11 02:33:01;;;;;;;60.40;22.67;;;;;;;2.20;81.30;99909.66;3164271;28;20059;-71
2023/12/11 02:34:33;;;;;;;59.25;22.67;;;;;;;2.20;81.56;99904.53;3156477;28;20612;-70
2023/12/11 02:36:05;;;;;;;63.25;23.02;;;;;;;2.21;81.73;99900.22;3158649;28;20067;-70
2023/12/11 02:37:36;;;;;;;54.35;21.75;;;;;;;2.21;81.67;99905.38;3151504;28;20060;-69
2023/12/11 02:39:07;;;;;;;57.20;21.65;;;;;;;2.21;81.92;99907.94;3157447;28;20081;-69
2023/12/11 02:40:39;;;;;;;57.72;21.52;;;;;;;2.22;81.72;99902.78;3154646;28;20186;-70
2023/12/11 02:42:13;;;;;;;55.90;20.65;;;;;;;2.23;81.67;99908.78;3151375;28;20543;-69
2023/12/11 02:43:44;;;;;;;57.40;23.05;;;;;;;2.21;81.78;99907.94;3150845;28;20063;-67
2023/12/11 02:45:16;;;;;;;53.13;20.45;;;;;;;1.47;81.87;99787.06;3152575;28;20102;-70
2023/12/11 02:46:48;;;;;;;59.85;22.92;;;;;;;2.19;81.83;99896.81;3151453;28;20140;-69
2023/12/11 02:48:19;;;;;;;59.28;22.67;;;;;;;2.20;81.87;99911.38;3151256;28;20040;-69
2023/12/11 02:49:51;;;;;;;60.13;21.98;;;;;;;2.18;81.97;99902.81;3151470;28;20063;-69
2023/12/11 02:51:22;;;;;;;56.20;21.90;;;;;;;2.17;81.96;99904.56;3153549;28;20525;-69
2023/12/11 02:52:54;;;;;;;52.30;20.33;;;;;;;2.15;82.19;99908.84;3154503;28;20079;-68
2023/12/11 02:54:25;;;;;;;58.85;23.17;;;;;;;2.14;82.28;99908.88;3161625;28;20058;-69
2023/12/11 02:55:56;;;;;;;61.35;23.45;;;;;;;2.13;82.24;99915.72;3151638;28;20110;-69
2023/12/11 02:57:29;;;;;;;58.25;21.70;;;;;;;2.04;82.35;99896.13;3151437;28;20055;-69
2023/12/11 02:59:01;;;;;;;54.65;22.77;;;;;;;2.12;82.42;99906.31;3151551;28;20052;-68
2023/12/11 03:00:32;;;;;;;55.83;21.25;;;;;;;1.68;82.31;99847.63;3151086;28;20052;-69
2023/12/11 03:02:04;;;;;;;62.85;21.83;;;;;;;1.33;82.20;99789.72;3163447;28;20107;-69
2023/12/11 03:03:35;;;;;;;53.00;20.87;;;;;;;2.08;82.48;99914.91;3153162;28;20553;-71
2023/12/11 03:05:07;;;;;;;54.95;20.02;;;;;;;2.08;82.48;99916.63;3159386;28;20388;-71
2023/12/11 03:06:38;;;;;;;60.05;22.17;;;;;;;2.03;82.58;99912.38;3160746;28;20486;-70
2023/12/11 03:08:10;;;;;;;56.58;21.70;;;;;;;2.03;82.69;99917.50;3166126;28;20138;-71
2023/12/11 03:09:41;;;;;;;57.85;21.17;;;;;;;2.04;82.78;99914.09;3165789;28;20044;-71
2023/12/11 03:11:13;;;;;;;60.47;21.63;;;;;;;2.04;82.84;99906.38;3157979;28;20055;-71
2023/12/11 03:12:45;;;;;;;57.53;21.35;;;;;;;2.02;82.90;99905.53;3153790;28;20139;-70
2023/12/11 03:14:17;;;;;;;54.58;20.83;;;;;;;2.01;82.86;99897.84;3153382;28;20098;-69
2023/12/11 03:15:48;;;;;;;59.15;20.42;;;;;;;1.98;83.03;99900.44;3154470;28;20055;-71
2023/12/11 03:17:20;;;;;;;63.85;22.00;;;;;;;1.97;83.06;99902.16;3153181;28;20134;-70
2023/12/11 03:18:51;;;;;;;58.72;22.45;;;;;;;1.97;82.98;99904.72;3158281;28;20048;-70
2023/12/11 03:20:23;;;;;;;58.03;21.17;;;;;;;1.97;83.00;99902.16;3162538;28;20527;-69
2023/12/11 03:21:55;;;;;;;55.53;20.63;;;;;;;1.95;83.10;99903.91;3153301;28;20596;-68
2023/12/11 03:23:27;;;;;;;54.90;21.67;;;;;;;1.95;83.12;99909.03;3153407;28;20254;-68
2023/12/11 03:24:58;;;;;;;56.05;20.55;;;;;;;1.92;83.20;99909.03;3156328;28;20066;-68
2023/12/11 03:26:30;;;;;;;56.75;22.73;;;;;;;1.94;83.21;99907.31;3153243;28;20075;-68
2023/12/11 03:28:02;;;;;;;57.45;21.38;;;;;;;1.90;83.14;99899.66;3153416;28;20060;-68
2023/12/11 03:29:34;;;;;;;57.42;23.00;;;;;;;1.93;83.24;99908.19;3165930;28;20112;-68
2023/12/11 03:31:05;;;;;;;56.88;21.58;;;;;;;1.93;83.31;99902.22;3153777;28;20521;-67
2023/12/11 03:32:37;;;;;;;61.22;22.75;;;;;;;1.93;83.29;99910.75;3161689;28;20427;-67
2023/12/11 03:34:08;;;;;;;61.60;23.02;;;;;;;1.94;83.27;99909.03;3158663;28;20059;-68
2023/12/11 03:35:40;;;;;;;61.42;22.88;;;;;;;1.93;83.33;99910.75;3159562;28;20103;-68
2023/12/11 03:37:11;;;;;;;62.30;21.58;;;;;;;1.91;83.44;99899.63;3157269;28;20048;-68
2023/12/11 03:38:43;;;;;;;64.72;23.05;;;;;;;1.94;83.42;99906.47;3160756;28;20802;-68
2023/12/11 03:40:14;;;;;;;56.63;21.25;;;;;;;1.94;83.39;99907.31;3164972;28;20059;-68
2023/12/11 03:41:46;;;;;;;55.63;22.00;;;;;;;1.33;83.37;99807.69;3159887;28;20059;-68
2023/12/11 03:43:18;;;;;;;55.90;23.42;;;;;;;1.96;83.27;99908.16;3158878;28;20051;-73
2023/12/11 03:44:50;;;;;;;62.38;23.10;;;;;;;1.90;83.48;99904.81;3165632;28;20451;-73
2023/12/11 03:46:21;;;;;;;60.85;21.67;;;;;;;1.81;83.29;99883.47;3160545;28;20059;-73
2023/12/11 03:47:53;;;;;;;54.35;22.73;;;;;;;1.95;83.36;99914.19;3162545;28;20181;-73
2023/12/11 03:49:24;;;;;;;64.53;22.65;;;;;;;1.48;83.11;99835.81;3159286;28;20468;-72
2023/12/11 03:50:57;;;;;;;59.13;22.10;;;;;;;1.96;83.29;99915.03;3165905;28;20047;-73
2023/12/11 03:52:28;;;;;;;55.95;22.88;;;;;;;1.90;83.29;99905.66;3165855;28;20257;-74
2023/12/11 03:54:00;;;;;;;63.38;24.02;;;;;;;1.92;83.23;99906.47;3165527;28;20051;-72
2023/12/11 03:55:31;;;;;;;54.03;21.98;;;;;;;1.90;83.08;99907.38;3165948;28;20055;-73
2023/12/11 03:57:03;;;;;;;65.15;23.63;;;;;;;1.93;83.26;99918.47;3154020;28;20051;-71
2023/12/11 03:58:36;;;;;;;62.92;23.10;;;;;;;1.92;83.40;99909.03;3153167;28;20170;-71
2023/12/11 04:00:09;;;;;;;58.90;22.85;;;;;;;1.88;83.33;99899.66;3163277;28;20051;-71
2023/12/11 04:01:40;;;;;;;64.00;23.00;;;;;;;1.89;83.32;99903.94;3160619;28;20048;-71
2023/12/11 04:03:12;;;;;;;56.55;22.48;;;;;;;1.89;83.29;99909.06;3164481;28;20063;-71
2023/12/11 04:04:43;;;;;;;63.25;22.38;;;;;;;1.88;83.27;99906.53;3158292;28;20755;-72
2023/12/11 04:06:14;;;;;;;62.05;22.90;;;;;;;1.88;83.21;99906.53;3162152;28;20090;-71
2023/12/11 04:07:46;;;;;;;58.25;22.77;;;;;;;1.85;83.33;99901.41;3159355;28;20052;-72
2023/12/11 04:09:17;;;;;;;67.13;23.13;;;;;;;1.72;83.24;99886.09;3158084;28;20046;-72
2023/12/11 04:10:49;;;;;;;59.35;21.80;;;;;;;1.82;83.42;99912.56;3160998;28;20174;-72
2023/12/11 04:12:20;;;;;;;51.33;20.20;;;;;;;1.82;83.41;99910.84;3152810;28;20059;-73
2023/12/11 04:13:54;;;;;;;59.90;22.58;;;;;;;1.81;83.31;99916.84;3152594;28;20493;-72
2023/12/11 04:15:24;;;;;;;59.03;23.35;;;;;;;1.80;83.46;99914.28;3155912;28;20144;-72
2023/12/11 04:16:56;;;;;;;71.93;24.70;;;;;;;1.76;83.33;99913.44;3156526;28;20044;-72
2023/12/11 04:18:27;;;;;;;71.70;25.35;;;;;;;1.76;83.45;99922.88;3163698;28;20671;-72
2023/12/11 04:19:59;;;;;;;73.43;24.23;;;;;;;1.75;83.41;99927.16;3152784;28;20154;-72
2023/12/11 04:21:30;;;;;;;59.20;23.08;;;;;;;1.72;83.50;99927.19;3152696;28;20052;-72
2023/12/11 04:23:02;;;;;;;68.68;24.80;;;;;;;1.74;83.42;99927.16;3153305;28;20540;-73
2023/12/11 04:24:33;;;;;;;64.90;24.73;;;;;;;1.72;83.47;99931.47;3164138;28;20546;-71
2023/12/11 04:26:05;;;;;;;64.78;24.17;;;;;;;1.71;83.46;99930.59;3165526;28;20055;-71
2023/12/11 04:27:35;;;;;;;62.90;23.33;;;;;;;1.71;83.43;99933.16;3155641;28;20106;-71
2023/12/11 04:29:09;;;;;;;64.53;23.27;;;;;;;1.70;83.43;99928.06;3156755;28;20174;-70
2023/12/11 04:30:39;;;;;;;;;;;;;;;1.55;83.66;99929.00;3159349;28;20135;-72
2023/12/11 04:32:11;;;;;;;66.53;23.50;;;;;;;1.56;83.78;99926.41;3158307;28;19947;-71
2023/12/11 04:33:42;;;;;;;72.70;26.90;;;;;;;1.59;83.79;99934.09;3156262;28;20130;-71
2023/12/11 04:35:14;;;;;;;69.78;25.83;;;;;;;1.60;83.76;99942.69;3155059;28;20433;-71
2023/12/11 04:36:46;;;;;;;69.88;24.92;;;;;;;1.57;83.74;99938.41;3155970;28;20059;-71
2023/12/11 04:38:17;;;;;;;66.15;24.77;;;;;;;1.62;83.79;99952.91;3157144;28;20055;-71
2023/12/11 04:39:49;;;;;;;67.43;25.08;;;;;;;1.60;83.71;99950.38;3163496;28;20770;-71
2023/12/11 04:41:20;;;;;;;67.95;24.42;;;;;;;1.59;83.73;99956.34;3162480;28;20059;-71
2023/12/11 04:42:52;;;;;;;78.03;29.45;;;;;;;1.59;83.89;99957.19;3152621;28;20104;-72
2023/12/11 04:44:24;;;;;;;79.63;30.55;;;;;;;1.59;83.76;99959.75;3152652;28;20464;-71
2023/12/11 04:45:56;;;;;;;73.22;26.88;;;;;;;1.57;83.76;99955.53;3152389;28;20094;-71
2023/12/11 04:47:27;;;;;;;66.30;25.20;;;;;;;1.55;83.81;99955.53;3152042;28;20101;-71
2023/12/11 04:48:58;;;;;;;73.07;25.92;;;;;;;1.53;83.91;99953.81;3152394;28;20179;-72
2023/12/11 04:50:29;;;;;;;73.43;26.40;;;;;;;1.49;83.81;99950.44;3163588;28;20086;-72
2023/12/11 04:52:01;;;;;;;70.55;26.52;;;;;;;1.50;83.88;99957.25;3154495;28;20059;-72
2023/12/11 04:53:32;;;;;;;67.95;26.13;;;;;;;1.48;83.97;99953.88;3161820;28;20132;-72
2023/12/11 04:55:05;;;;;;;66.50;26.10;;;;;;;1.04;83.89;99884.84;3156246;28;20048;-69
2023/12/11 04:56:35;;;;;;;73.70;24.58;;;;;;;1.46;84.04;99958.16;3165105;28;20154;-70
2023/12/11 04:58:07;;;;;;;67.60;25.02;;;;;;;1.43;84.02;99958.16;3164867;28;20074;-68
2023/12/11 04:59:41;;;;;;;65.20;24.35;;;;;;;1.47;84.04;99964.13;3153636;28;20048;-68
2023/12/11 05:01:11;;;;;;;65.60;23.83;;;;;;;1.45;84.13;99959.03;3152877;28;20500;-69
2023/12/11 05:02:44;;;;;;;66.53;23.00;;;;;;;1.45;84.21;99964.16;3155548;28;20052;-68
2023/12/11 05:04:16;;;;;;;62.80;22.63;;;;;;;1.44;84.36;99967.56;3154499;28;20127;-75
2023/12/11 05:05:47;;;;;;;64.25;23.52;;;;;;;1.44;84.34;99959.00;3152800;28;20105;-73
2023/12/11 05:07:19;;;;;;;61.22;22.65;;;;;;;1.43;84.16;99952.19;3164735;28;20059;-73
2023/12/11 05:08:50;;;;;;;71.80;24.98;;;;;;;1.41;84.25;99952.19;3159863;28;20048;-74
2023/12/11 05:10:22;;;;;;;67.63;24.77;;;;;;;1.41;84.28;99944.47;3168098;28;20046;-71
2023/12/11 05:11:53;;;;;;;66.90;26.45;;;;;;;1.02;84.36;99891.69;3160158;28;20048;-69
2023/12/11 05:13:25;;;;;;;72.60;26.48;;;;;;;1.40;84.37;99950.50;3156042;28;20047;-72
2023/12/11 05:14:59;;;;;;;76.93;25.95;;;;;;;1.40;84.42;99952.22;3161358;28;20052;-65
2023/12/11 05:16:32;;;;;;;83.00;33.75;;;;;;;1.40;84.47;99949.63;3153964;28;20220;-70
2023/12/11 05:18:03;;;;;;;72.30;30.10;;;;;;;1.40;84.48;99947.91;3153996;28;20058;-68
2023/12/11 05:19:35;;;;;;;99.47;41.85;;;;;;;1.43;84.64;99947.91;3164740;28;20039;-65
2023/12/11 05:21:07;;;;;;;77.60;28.85;;;;;;;1.45;84.46;99946.19;3163687;28;20519;-72
2023/12/11 05:22:39;;;;;;;78.35;27.60;;;;;;;1.45;84.57;99942.75;3152018;28;20083;-69
2023/12/11 05:24:10;;;;;;;72.43;26.20;;;;;;;1.44;84.54;99941.91;3151788;28;20109;-66
2023/12/11 05:25:42;;;;;;;69.60;26.35;;;;;;;1.44;84.39;99952.16;3155165;28;20100;-66
2023/12/11 05:27:13;;;;;;;94.18;36.85;;;;;;;1.43;84.51;99945.34;3163775;28;20381;-64
2023/12/11 05:28:45;;;;;;;71.68;25.33;;;;;;;1.44;84.69;99936.75;3164857;28;20052;-67
2023/12/11 05:30:18;;;;;;;73.07;26.85;;;;;;;1.49;84.76;99940.16;3153975;28;20595;-68
2023/12/11 05:31:50;;;;;;;89.22;31.25;;;;;;;1.51;84.58;99942.72;3156667;28;20095;-68
2023/12/11 05:33:20;;;;;;;68.28;24.88;;;;;;;1.52;84.44;99939.31;3155602;28;20056;-67
2023/12/11 05:34:52;;;;;;;65.78;25.80;;;;;;;1.53;84.59;99941.00;3158682;28;20123;-72
2023/12/11 05:36:23;;;;;;;72.45;25.08;;;;;;;1.52;84.43;99932.44;3155453;28;20350;-68
2023/12/11 05:37:57;;;;;;;68.90;25.10;;;;;;;1.54;84.49;99938.44;3157474;28;20075;-68
2023/12/11 05:39:28;;;;;;;67.57;26.02;;;;;;;1.22;84.32;99891.59;3159327;28;20131;-67
2023/12/11 05:41:00;;;;;;;85.65;34.58;;;;;;;1.52;84.33;99931.59;3156009;28;20062;-65
2023/12/11 05:42:31;;;;;;;85.78;31.17;;;;;;;1.54;84.44;99938.44;3164900;28;20508;-68
2023/12/11 05:44:03;;;;;;;134.40;53.38;;;;;;;1.55;84.46;99935.00;3164532;28;20109;-65
2023/12/11 05:45:35;;;;;;;131.20;52.35;;;;;;;1.55;84.25;99932.44;3164884;28;20047;-66
2023/12/11 05:47:07;;;;;;;111.72;44.95;;;;;;;1.59;84.26;99946.09;3162977;28;20055;-69
2023/12/11 05:48:39;;;;;;;97.18;39.45;;;;;;;1.59;84.09;99940.94;3164837;28;20055;-69
2023/12/11 05:50:11;;;;;;;96.03;39.13;;;;;;;1.60;84.04;99937.53;3163155;28;20503;-70
2023/12/11 05:51:43;;;;;;;80.45;31.30;;;;;;;1.58;84.00;99937.53;3152550;28;20489;-69
2023/12/11 05:53:16;;;;;;;73.45;30.05;;;;;;;1.57;84.07;99946.13;3154456;28;20052;-70
2023/12/11 05:54:47;;;;;;;72.93;30.30;;;;;;;1.56;84.04;99941.81;3151975;28;20135;-69
2023/12/11 05:56:19;;;;;;;74.75;32.55;;;;;;;1.55;84.03;99939.28;3154566;28;20606;-69
2023/12/11 05:57:50;;;;;;;83.90;31.33;;;;;;;1.54;84.12;99940.16;3151246;28;20611;-70
2023/12/11 05:59:22;;;;;;;82.82;31.38;;;;;;;1.55;84.07;99939.28;3151583;28;20134;-68
2023/12/11 06:00:54;;;;;;;82.38;29.90;;;;;;;1.55;83.93;99936.72;3156466;28;20055;-69
2023/12/11 06:02:26;;;;;;;81.00;29.48;;;;;;;1.53;83.94;99943.56;3159835;28;20048;-68
2023/12/11 06:03:57;;;;;;;84.72;32.40;;;;;;;1.51;83.76;99935.00;3160221;28;20060;-65
2023/12/11 06:05:30;;;;;;;77.43;30.15;;;;;;;1.51;83.86;99937.56;3160561;28;20051;-68
2023/12/11 06:07:00;;;;;;;82.35;30.08;;;;;;;1.51;83.82;99943.59;3157498;28;20075;-70
2023/12/11 06:08:33;;;;;;;72.20;29.15;;;;;;;1.50;83.85;99946.16;3154106;28;20047;-70
2023/12/11 06:10:06;;;;;;;75.93;30.15;;;;;;;1.53;83.78;99944.41;3151390;28;20052;-71
2023/12/11 06:11:37;;;;;;;72.50;27.42;;;;;;;1.55;83.86;99955.53;3155388;28;20062;-68
2023/12/11 06:13:09;;;;;;;73.55;29.60;;;;;;;1.58;83.81;99946.97;3163789;28;20513;-68
2023/12/11 06:14:41;;;;;;;73.22;28.65;;;;;;;1.61;83.83;99946.94;3163939;28;20073;-68
2023/12/11 06:16:15;;;;;;;82.15;29.95;;;;;;;1.64;83.81;99952.06;3157478;28;20052;-67
2023/12/11 06:17:47;;;;;;;81.40;30.92;;;;;;;1.66;83.93;99950.34;3157365;28;20051;-68
2023/12/11 06:19:19;;;;;;;69.35;28.20;;;;;;;1.72;84.00;99952.88;3156981;28;20051;-70
2023/12/11 06:20:50;;;;;;;71.93;28.48;;;;;;;1.77;83.99;99960.50;3164221;28;20073;-69
2023/12/11 06:22:22;;;;;;;73.32;29.45;;;;;;;1.84;83.97;99959.63;3164019;28;20520;-69
2023/12/11 06:23:54;;;;;;;80.47;29.33;;;;;;;1.88;83.85;99957.88;3156673;28;20113;-69
2023/12/11 06:25:43;;;;;;;74.35;28.85;;;;;;;1.94;83.77;99966.38;3153131;28;20055;-68
2023/12/11 06:27:40;;;;;;;67.80;26.63;;;;;;;1.98;83.67;99955.25;3159795;28;20052;-68
2023/12/11 06:29:16;;;;;;;76.90;28.10;;;;;;;2.05;83.68;99964.59;3150814;28;20056;-67
2023/12/11 06:30:48;;;;;;;85.55;32.08;;;;;;;2.10;83.77;99958.56;3163011;28;20791;-68
2023/12/11 06:32:22;;;;;;;78.10;30.55;;;;;;;2.18;83.70;99967.06;3153423;28;20474;-69
2023/12/11 06:33:53;;;;;;;76.32;29.33;;;;;;;2.23;83.60;99960.16;3153254;28;20222;-68
2023/12/11 06:35:25;;;;;;;75.20;29.55;;;;;;;2.32;83.47;99954.09;3153741;28;20067;-68
2023/12/11 06:36:56;;;;;;;81.68;31.85;;;;;;;2.37;83.39;99966.06;3157666;28;20052;-69
2023/12/11 06:38:28;;;;;;;91.13;35.05;;;;;;;2.40;83.25;99954.88;3156970;28;20078;-69
2023/12/11 06:39:59;;;;;;;78.68;30.42;;;;;;;2.44;83.19;99956.56;3157477;28;20063;-68
2023/12/11 06:41:31;;;;;;;87.75;34.15;;;;;;;2.45;83.13;99953.94;3158531;28;20059;-69
2023/12/11 06:43:03;;;;;;;82.47;33.15;;;;;;;2.56;83.12;99958.16;3157999;28;20051;-67
2023/12/11 06:44:36;;;;;;;74.97;30.27;;;;;;;2.57;82.88;99947.84;3162260;28;20925;-68
2023/12/11 06:46:07;;;;;;;80.63;32.60;;;;;;;2.70;82.89;99961.44;3158237;28;20082;-68
2023/12/11 06:47:41;;;;;;;83.97;33.42;;;;;;;2.78;82.82;99964.78;3153722;28;20526;-71
2023/12/11 06:49:12;;;;;;;91.78;33.70;;;;;;;2.84;82.73;99962.16;3155542;28;20059;-69
2023/12/11 06:50:44;;;;;;;85.75;32.97;;;;;;;2.91;82.43;99966.34;3156651;28;20048;-68
2023/12/11 06:52:15;;;;;;;90.78;35.60;;;;;;;2.97;82.53;99971.41;3156360;28;20188;-69
2023/12/11 06:53:47;;;;;;;87.57;33.65;;;;;;;3.07;82.43;99974.72;3156800;28;20184;-68
2023/12/11 06:55:18;;;;;;;80.53;32.15;;;;;;;3.13;82.28;99966.09;3159811;28;20099;-68
2023/12/11 06:56:50;;;;;;;86.13;31.27;;;;;;;3.19;82.18;99959.16;3153622;28;20513;-68
2023/12/11 06:58:21;;;;;;;73.80;30.25;;;;;;;3.27;82.06;99956.47;3153119;28;20139;-68
2023/12/11 06:59:54;;;;;;;84.03;30.33;;;;;;;3.35;81.93;99964.09;3154626;28;20047;-69
2023/12/11 07:01:27;;;;;;;67.15;27.02;;;;;;;3.39;81.79;99955.47;3160832;28;20052;-72
2023/12/11 07:03:02;;;;;;;71.15;26.60;;;;;;;3.51;81.65;99964.75;3162235;28;20059;-72
2023/12/11 07:04:44;;;;;;;82.20;28.58;;;;;;;3.55;81.33;99967.25;3158595;28;20047;-69
2023/12/11 07:06:26;;;;;;;72.03;27.73;;;;;;;3.60;81.36;99967.19;3162783;28;20052;-71
2023/12/11 07:07:58;;;;;;;72.15;28.85;;;;;;;3.65;81.18;99968.81;3158390;28;20279;-70
2023/12/11 07:09:31;;;;;;;77.25;29.08;;;;;;;3.74;81.05;99967.84;3153617;28;20572;-71